Time;durP1;ratioP1;P1;durP2;ratioP2;P2;SDS_P1;SDS_P2;PMS_P1;PMS_P2;Temp;Humidity;BMP_temperature;BMP_pressure;BME280_temperature;BME280_humidity;BME280_pressure;Samples;Min_cycle;Max_cycle;Signal;HPM_P1;HPM_P2
2021/03/17 00:00:56;;;;;;;65.47;30.10;;;1.80;99.90;;;;;;5004574;28;20446;-80
2021/03/17 00:03:24;;;;;;;65.93;31.80;;;1.70;99.90;;;;;;5004118;28;20038;-80
2021/03/17 00:05:50;;;;;;;76.50;31.48;;;1.70;99.90;;;;;;5003051;28;20018;-80
2021/03/17 00:08:20;;;;;;;65.70;31.08;;;1.80;99.90;;;;;;5005118;28;20038;-80
2021/03/17 00:10:49;;;;;;;66.28;30.02;;;1.80;99.90;;;;;;5003855;28;20395;-80
2021/03/17 00:13:15;;;;;;;71.20;30.73;;;1.80;99.90;;;;;;5001884;28;20034;-80
2021/03/17 00:15:42;;;;;;;64.72;31.65;;;1.80;99.90;;;;;;5035050;28;20058;-80
2021/03/17 00:18:10;;;;;;;60.00;30.15;;;1.80;99.90;;;;;;5004183;28;20026;-80
2021/03/17 00:20:36;;;;;;;60.17;28.50;;;1.70;99.90;;;;;;5004119;28;20489;-80
2021/03/17 00:23:02;;;;;;;59.03;28.65;;;1.60;99.90;;;;;;5003094;28;20117;-79
2021/03/17 00:25:30;;;;;;;65.25;30.17;;;1.60;99.90;;;;;;5005228;28;20065;-78
2021/03/17 00:27:57;;;;;;;68.13;29.35;;;1.60;99.90;;;;;;5003645;28;20034;-78
2021/03/17 00:30:23;;;;;;;63.80;30.20;;;1.60;99.90;;;;;;5003823;28;20610;-78
2021/03/17 00:32:49;;;;;;;62.97;27.38;;;1.60;99.90;;;;;;5001526;28;20487;-77
2021/03/17 00:35:15;;;;;;;74.68;30.70;;;1.60;99.90;;;;;;5005211;28;20028;-78
2021/03/17 00:37:41;;;;;;;75.15;32.35;;;1.60;99.90;;;;;;5002010;28;20061;-78
2021/03/17 00:40:07;;;;;;;76.22;29.48;;;1.60;99.90;;;;;;5005203;28;20034;-78
2021/03/17 00:42:33;;;;;;;70.25;31.88;;;1.60;99.90;;;;;;5003423;28;20133;-78
2021/03/17 00:44:59;;;;;;;65.70;29.73;;;1.60;99.90;;;;;;5004738;28;20546;-78
2021/03/17 00:47:24;;;;;;;62.80;28.75;;;1.60;99.90;;;;;;5003641;28;20034;-78
2021/03/17 00:49:50;;;;;;;62.60;31.13;;;1.50;99.90;;;;;;5003607;28;20026;-78
2021/03/17 00:52:16;;;;;;;70.65;33.17;;;1.60;99.90;;;;;;5001949;28;20121;-78
2021/03/17 00:54:41;;;;;;;77.97;33.92;;;1.60;99.90;;;;;;5004822;28;20476;-78
2021/03/17 00:57:07;;;;;;;72.32;30.33;;;1.60;99.90;;;;;;5006801;28;20026;-78
2021/03/17 00:59:33;;;;;;;72.95;33.35;;;1.60;99.90;;;;;;5008801;28;20195;-78
2021/03/17 01:01:58;;;;;;;75.43;32.55;;;1.60;99.90;;;;;;5006636;28;20034;-78
2021/03/17 01:04:24;;;;;;;66.80;31.55;;;1.50;99.90;;;;;;5008159;28;20049;-78
2021/03/17 01:06:50;;;;;;;74.78;34.58;;;1.60;99.90;;;;;;5006565;28;20377;-79
2021/03/17 01:09:16;;;;;;;93.53;42.20;;;1.60;99.90;;;;;;5006883;28;20045;-78
2021/03/17 01:11:42;;;;;;;71.43;31.55;;;1.60;99.90;;;;;;5003363;28;20392;-79
2021/03/17 01:14:07;;;;;;;63.17;29.27;;;1.60;99.90;;;;;;5008413;28;20133;-78
2021/03/17 01:16:33;;;;;;;64.60;30.33;;;1.60;99.90;;;;;;5008697;28;20512;-78
2021/03/17 01:18:59;;;;;;;57.85;27.48;;;1.60;99.90;;;;;;5005954;28;20034;-78
2021/03/17 01:21:24;;;;;;;63.60;29.45;;;1.60;99.90;;;;;;5005924;28;20045;-79
2021/03/17 01:23:50;;;;;;;59.72;27.45;;;1.60;99.90;;;;;;5005943;28;20115;-78
2021/03/17 01:26:16;;;;;;;65.00;25.52;;;1.60;99.90;;;;;;5006643;28;20116;-79
2021/03/17 01:28:42;;;;;;;63.85;29.48;;;1.60;99.90;;;;;;5006039;28;20103;-78
2021/03/17 01:31:08;;;;;;;58.80;27.88;;;1.60;99.90;;;;;;5006597;28;20018;-78
2021/03/17 01:33:34;;;;;;;63.75;29.02;;;1.60;99.90;;;;;;5006592;28;20021;-79
2021/03/17 01:35:59;;;;;;;65.18;28.75;;;1.60;99.90;;;;;;5007679;28;20030;-79
2021/03/17 01:38:25;;;;;;;68.25;31.10;;;1.60;99.90;;;;;;5006303;28;20037;-79
2021/03/17 01:40:52;;;;;;;65.45;29.05;;;1.60;99.90;;;;;;5007392;28;20391;-78
2021/03/17 01:43:18;;;;;;;61.38;29.10;;;1.60;99.90;;;;;;4988068;28;20476;-79
2021/03/17 01:45:45;;;;;;;64.07;28.48;;;1.50;99.90;;;;;;5006388;28;20447;-78
2021/03/17 01:48:11;;;;;;;60.97;29.15;;;1.60;99.90;;;;;;5007725;28;20109;-78
2021/03/17 01:50:41;;;;;;;69.10;30.67;;;1.60;99.90;;;;;;5006129;28;20026;-79
2021/03/17 01:53:09;;;;;;;70.72;31.10;;;1.60;99.90;;;;;;5004511;28;20394;-78
2021/03/17 01:55:37;;;;;;;77.85;33.50;;;1.60;99.90;;;;;;5006471;28;20025;-78
2021/03/17 01:58:03;;;;;;;70.30;32.45;;;1.60;99.90;;;;;;5006011;28;20044;-78
2021/03/17 02:00:30;;;;;;;70.80;32.22;;;1.60;99.90;;;;;;5007151;28;20109;-78
2021/03/17 02:02:56;;;;;;;71.97;31.70;;;1.60;99.90;;;;;;5003977;28;20105;-79
2021/03/17 02:05:38;;;;;;;72.25;31.38;;;1.60;99.90;;;;;;5007146;28;20037;-78
2021/03/17 02:08:06;;;;;;;67.88;31.77;;;1.60;99.90;;;;;;5005040;28;20129;-78
2021/03/17 02:10:33;;;;;;;63.75;31.02;;;1.60;99.90;;;;;;5005978;28;20018;-78
2021/03/17 02:13:14;;;;;;;65.65;30.17;;;1.60;99.90;;;;;;5005213;28;20030;-79
2021/03/17 02:16:02;;;;;;;65.45;30.10;;;1.60;99.90;;;;;;5007599;28;20481;-79
2021/03/17 02:18:31;;;;;;;70.93;30.08;;;1.60;99.90;;;;;;5005405;28;20049;-78
2021/03/17 02:21:27;;;;;;;65.00;31.35;;;1.60;99.90;;;;;;5004614;28;20041;-79
2021/03/17 02:23:56;;;;;;;75.57;31.45;;;1.60;99.90;;;;;;5006223;28;20034;-79
2021/03/17 02:26:46;;;;;;;75.88;32.88;;;1.60;99.90;;;;;;5006531;28;20054;-78
2021/03/17 02:29:33;;;;;;;69.65;29.30;;;1.60;99.90;;;;;;5005407;28;20053;-78
2021/03/17 02:32:35;;;;;;;70.32;29.77;;;1.60;99.90;;;;;;5003488;28;20391;-78
2021/03/17 02:35:05;;;;;;;71.47;32.33;;;1.60;99.90;;;;;;5004875;28;20041;-78
2021/03/17 02:37:34;;;;;;;74.65;32.28;;;1.60;99.90;;;;;;5005427;28;20597;-78
2021/03/17 02:40:09;;;;;;;69.40;32.45;;;1.60;99.90;;;;;;5004959;28;20037;-78
2021/03/17 02:42:48;;;;;;;74.07;33.00;;;1.60;99.90;;;;;;5003712;28;20038;-78
2021/03/17 02:45:20;;;;;;;75.40;30.15;;;1.60;99.90;;;;;;5005723;28;20090;-79
2021/03/17 02:48:23;;;;;;;81.88;35.05;;;1.60;99.90;;;;;;5006348;28;20518;-79
2021/03/17 02:50:50;;;;;;;69.22;31.38;;;1.60;99.90;;;;;;5001835;28;20080;-79
2021/03/17 02:53:21;;;;;;;73.55;32.28;;;1.60;99.90;;;;;;5001987;28;20064;-80
2021/03/17 02:56:10;;;;;;;73.63;35.15;;;1.60;99.90;;;;;;5004800;28;20195;-79
2021/03/17 02:58:38;;;;;;;78.35;34.08;;;1.60;99.90;;;;;;5011273;28;20125;-79
2021/03/17 03:01:07;;;;;;;76.20;33.78;;;1.60;99.90;;;;;;5010953;28;20400;-79
2021/03/17 03:03:33;;;;;;;67.30;32.30;;;1.60;99.90;;;;;;5012638;28;20371;-78
2021/03/17 03:06:02;;;;;;;77.40;32.67;;;1.60;99.90;;;;;;5012592;28;20040;-79
2021/03/17 03:08:28;;;;;;;75.32;32.53;;;1.50;99.90;;;;;;5012313;28;20052;-78
2021/03/17 03:10:56;;;;;;;76.32;33.05;;;1.60;99.90;;;;;;5011467;28;20026;-78
2021/03/17 03:13:25;;;;;;;68.95;31.05;;;1.60;99.90;;;;;;5012340;28;20387;-78
2021/03/17 03:15:53;;;;;;;72.38;31.23;;;1.60;99.90;;;;;;5011149;28;20386;-78
2021/03/17 03:18:21;;;;;;;65.55;30.55;;;1.60;99.90;;;;;;5011960;28;20057;-78
2021/03/17 03:20:48;;;;;;;82.93;33.28;;;1.60;99.90;;;;;;5011152;28;20125;-78
2021/03/17 03:23:18;;;;;;;77.47;32.60;;;1.60;99.90;;;;;;5010758;28;20073;-78
2021/03/17 03:25:48;;;;;;;73.53;31.77;;;1.60;99.90;;;;;;5012131;28;20079;-78
2021/03/17 03:28:15;;;;;;;74.95;31.42;;;1.50;99.90;;;;;;5012272;28;20121;-78
2021/03/17 03:30:47;;;;;;;70.40;32.92;;;1.50;99.90;;;;;;5010976;28;20065;-78
2021/03/17 03:33:14;;;;;;;77.55;34.00;;;1.60;99.90;;;;;;5011838;28;20489;-78
2021/03/17 03:35:40;;;;;;;72.60;31.67;;;1.60;99.90;;;;;;5010741;28;20517;-79
2021/03/17 03:38:07;;;;;;;69.55;31.35;;;1.60;99.90;;;;;;5010875;28;20480;-79
2021/03/17 03:40:33;;;;;;;67.55;31.10;;;1.50;99.90;;;;;;5012193;28;20107;-78
2021/03/17 03:42:59;;;;;;;67.40;29.45;;;1.50;99.90;;;;;;5010328;28;20073;-78
2021/03/17 03:45:25;;;;;;;69.55;31.77;;;1.60;99.90;;;;;;5011970;28;20113;-78
2021/03/17 03:47:51;;;;;;;70.15;31.92;;;1.50;99.90;;;;;;5011898;28;20034;-78
2021/03/17 03:50:20;;;;;;;66.60;29.25;;;1.50;99.90;;;;;;5012095;28;20037;-78
2021/03/17 03:53:01;;;;;;;70.18;32.78;;;1.50;99.90;;;;;;5010860;28;20025;-78
2021/03/17 03:55:38;;;;;;;71.85;31.35;;;1.40;99.90;;;;;;5010480;28;20033;-78
2021/03/17 03:58:07;;;;;;;63.30;29.25;;;1.40;99.90;;;;;;5010689;28;20492;-79
2021/03/17 04:00:35;;;;;;;67.07;27.95;;;1.40;99.90;;;;;;5011971;28;20033;-78
2021/03/17 04:03:02;;;;;;;55.08;28.17;;;1.40;99.90;;;;;;5010309;28;20033;-78
2021/03/17 04:05:36;;;;;;;63.90;26.88;;;1.40;99.90;;;;;;5010599;28;20030;-80
2021/03/17 04:08:08;;;;;;;63.80;28.33;;;1.40;99.90;;;;;;5011603;28;20034;-79
2021/03/17 04:10:37;;;;;;;60.78;25.65;;;1.30;99.90;;;;;;5010726;28;20472;-78
2021/03/17 04:13:06;;;;;;;56.85;27.13;;;1.30;99.90;;;;;;5010384;28;20018;-79
2021/03/17 04:15:35;;;;;;;59.00;28.00;;;1.30;99.90;;;;;;5010484;28;20049;-79
2021/03/17 04:18:06;;;;;;;57.05;27.30;;;1.30;99.90;;;;;;5011652;28;20029;-79
2021/03/17 04:20:37;;;;;;;55.90;25.38;;;1.20;99.90;;;;;;5010288;28;20117;-79
2021/03/17 04:23:06;;;;;;;55.58;27.20;;;1.30;99.90;;;;;;5008671;28;20014;-78
2021/03/17 04:25:33;;;;;;;54.63;26.33;;;1.30;99.90;;;;;;5010065;28;20018;-78
2021/03/17 04:28:01;;;;;;;56.47;25.35;;;1.30;99.90;;;;;;5011473;28;20048;-78
2021/03/17 04:30:27;;;;;;;55.80;25.35;;;1.30;99.90;;;;;;5010549;28;20072;-78
2021/03/17 04:32:54;;;;;;;60.05;26.27;;;1.30;99.90;;;;;;5014060;28;20026;-78
2021/03/17 04:35:21;;;;;;;59.65;27.85;;;1.30;99.90;;;;;;5013998;28;20098;-79
2021/03/17 04:37:50;;;;;;;65.00;29.48;;;1.30;99.90;;;;;;5013327;28;20026;-79
2021/03/17 04:40:16;;;;;;;64.80;27.77;;;1.30;99.90;;;;;;5013553;28;20025;-79
2021/03/17 04:42:43;;;;;;;63.75;27.65;;;1.30;99.90;;;;;;5013611;28;20025;-79
2021/03/17 04:45:10;;;;;;;58.63;26.52;;;1.30;99.90;;;;;;5013795;28;20033;-79
2021/03/17 04:47:39;;;;;;;56.67;27.00;;;1.40;99.90;;;;;;5014119;28;20148;-80
2021/03/17 04:50:06;;;;;;;62.83;27.92;;;1.30;99.90;;;;;;5013445;28;20471;-79
2021/03/17 04:52:37;;;;;;;61.75;26.38;;;1.40;99.90;;;;;;5013317;28;20427;-79
2021/03/17 04:55:03;;;;;;;60.53;27.75;;;1.30;99.90;;;;;;5013677;28;20479;-79
2021/03/17 04:57:33;;;;;;;56.42;26.10;;;1.40;99.90;;;;;;5014947;28;20069;-79
2021/03/17 04:59:59;;;;;;;66.10;29.05;;;1.40;99.90;;;;;;5014709;28;20502;-78
2021/03/17 05:02:29;;;;;;;60.17;26.13;;;1.30;99.90;;;;;;5014479;28;20022;-79
2021/03/17 05:04:55;;;;;;;61.72;29.45;;;1.30;99.90;;;;;;5013665;28;20468;-79
2021/03/17 05:07:21;;;;;;;59.17;27.30;;;1.30;99.90;;;;;;5013577;28;20068;-79
2021/03/17 05:09:48;;;;;;;56.40;26.92;;;1.30;99.90;;;;;;5014355;28;20037;-79
2021/03/17 05:12:16;;;;;;;61.83;27.92;;;1.30;99.90;;;;;;5014159;28;20040;-78
2021/03/17 05:14:43;;;;;;;67.00;29.50;;;1.30;99.90;;;;;;5013268;28;20372;-78
2021/03/17 05:17:10;;;;;;;57.40;26.25;;;1.30;99.90;;;;;;5014465;28;20490;-79
2021/03/17 05:19:38;;;;;;;59.22;27.40;;;1.30;99.90;;;;;;5013287;28;20026;-78
2021/03/17 05:22:06;;;;;;;61.13;25.75;;;1.20;99.90;;;;;;5012982;28;20018;-78
2021/03/17 05:24:33;;;;;;;52.60;25.40;;;1.20;99.90;;;;;;5013107;28;20033;-78
2021/03/17 05:27:02;;;;;;;59.63;25.60;;;1.20;99.90;;;;;;5013059;28;20026;-78
2021/03/17 05:29:28;;;;;;;49.83;24.80;;;1.20;99.90;;;;;;5014333;28;20037;-78
2021/03/17 05:31:54;;;;;;;51.67;23.08;;;1.20;99.90;;;;;;5012674;28;20056;-79
2021/03/17 05:34:20;;;;;;;57.35;24.50;;;1.20;99.90;;;;;;5014220;28;20091;-79
2021/03/17 05:36:47;;;;;;;48.25;22.45;;;1.20;99.90;;;;;;5012883;28;20018;-79
2021/03/17 05:39:14;;;;;;;53.65;23.73;;;1.20;99.90;;;;;;5012625;28;20073;-79
2021/03/17 05:41:40;;;;;;;49.97;24.08;;;1.20;99.90;;;;;;5011319;28;20053;-80
2021/03/17 05:44:07;;;;;;;46.25;23.85;;;1.20;99.90;;;;;;5011655;28;20509;-79
2021/03/17 05:46:34;;;;;;;56.70;25.00;;;1.10;99.90;;;;;;5012804;28;20022;-79
2021/03/17 05:49:00;;;;;;;50.17;23.25;;;1.10;99.90;;;;;;5013904;28;20168;-80
2021/03/17 05:51:26;;;;;;;47.05;24.88;;;1.10;99.90;;;;;;5013551;28;20018;-78
2021/03/17 05:53:52;;;;;;;55.58;24.95;;;1.10;99.90;;;;;;5012528;28;20026;-78
2021/03/17 05:56:18;;;;;;;54.95;23.33;;;1.10;99.90;;;;;;5013424;28;20068;-79
2021/03/17 05:58:44;;;;;;;59.38;26.90;;;1.10;99.90;;;;;;5012227;28;20018;-78
2021/03/17 06:01:16;;;;;;;56.58;25.33;;;1.20;99.90;;;;;;5013235;28;20030;-79
2021/03/17 06:03:43;;;;;;;51.35;25.25;;;1.20;99.90;;;;;;5013623;28;20040;-78
2021/03/17 06:06:11;;;;;;;57.83;24.45;;;1.20;99.90;;;;;;5012401;28;20038;-79
2021/03/17 06:08:59;;;;;;;52.10;24.67;;;1.20;99.90;;;;;;5012279;28;20084;-79
2021/03/17 06:11:26;;;;;;;49.35;22.25;;;1.20;99.90;;;;;;5012494;28;20029;-79
2021/03/17 06:13:53;;;;;;;45.90;22.45;;;1.20;99.90;;;;;;5012320;28;20056;-80
2021/03/17 06:16:22;;;;;;;52.30;23.92;;;1.10;99.90;;;;;;5013252;28;20026;-79
2021/03/17 06:19:07;;;;;;;51.47;23.58;;;1.10;99.90;;;;;;5012267;28;20053;-78
2021/03/17 06:21:33;;;;;;;50.13;24.27;;;1.10;99.90;;;;;;5011810;28;20091;-78
2021/03/17 06:23:59;;;;;;;45.30;23.02;;;1.10;99.90;;;;;;5010236;28;20022;-79
2021/03/17 06:26:25;;;;;;;55.72;23.75;;;1.10;99.90;;;;;;5006085;28;20435;-79
2021/03/17 06:28:50;;;;;;;46.28;21.38;;;1.10;99.90;;;;;;5010928;28;20573;-78
2021/03/17 06:31:18;;;;;;;41.47;20.48;;;1.20;99.90;;;;;;5012240;28;20033;-78
2021/03/17 06:33:43;;;;;;;46.03;20.60;;;1.20;99.90;;;;;;5010418;28;20061;-78
2021/03/17 06:36:11;;;;;;;49.05;23.55;;;1.30;99.90;;;;;;5012072;28;20054;-79
2021/03/17 06:38:36;;;;;;;65.43;32.63;;;1.30;99.90;;;;;;5009481;28;20102;-78
2021/03/17 06:41:02;;;;;;;92.82;43.75;;;1.40;99.90;;;;;;5009108;28;20133;-78
2021/03/17 06:43:40;;;;;;;87.88;40.70;;;1.30;99.90;;;;;;5008434;28;20026;-77
2021/03/17 06:46:08;;;;;;;69.22;34.83;;;1.40;99.90;;;;;;5008975;28;20052;-77
2021/03/17 06:48:34;;;;;;;72.72;39.70;;;1.40;99.90;;;;;;5008605;28;20551;-77
2021/03/17 06:51:14;;;;;;;69.28;28.13;;;1.50;99.90;;;;;;5011619;28;20113;-79
2021/03/17 06:53:54;;;;;;;48.72;22.30;;;1.70;99.90;;;;;;5008919;28;20041;-78
2021/03/17 06:56:28;;;;;;;47.88;22.15;;;1.80;99.90;;;;;;5011906;28;20018;-77
2021/03/17 06:59:01;;;;;;;47.33;19.92;;;1.70;99.90;;;;;;5010258;28;20022;-79
2021/03/17 07:01:40;;;;;;;41.80;18.02;;;1.70;99.90;;;;;;5011152;28;20387;-78
2021/03/17 07:04:12;;;;;;;45.20;20.98;;;1.60;99.90;;;;;;5009891;28;20069;-79
2021/03/17 07:06:45;;;;;;;46.53;20.58;;;1.50;99.90;;;;;;5009987;28;20084;-79
2021/03/17 07:09:25;;;;;;;47.60;21.05;;;1.50;99.90;;;;;;5023411;28;20460;-79
2021/03/17 07:12:03;;;;;;;50.25;20.15;;;1.60;99.90;;;;;;5009769;28;20025;-79
2021/03/17 07:14:29;;;;;;;50.13;21.77;;;1.70;99.90;;;;;;5010056;28;20113;-79
2021/03/17 07:16:57;;;;;;;45.28;20.45;;;1.80;99.90;;;;;;5008839;28;20026;-80
2021/03/17 07:19:38;;;;;;;42.17;18.05;;;1.80;99.90;;;;;;5009225;28;20053;-79
2021/03/17 07:22:10;;;;;;;40.13;18.25;;;1.90;99.90;;;;;;5025932;28;20034;-79
2021/03/17 07:24:40;;;;;;;41.30;17.77;;;1.90;99.90;;;;;;5009511;28;20030;-79
2021/03/17 07:27:17;;;;;;;37.85;18.73;;;1.80;99.90;;;;;;5006856;28;20073;-79
2021/03/17 07:29:44;;;;;;;37.28;19.25;;;2.00;99.90;;;;;;4993650;28;20120;-79
2021/03/17 07:32:10;;;;;;;34.25;17.88;;;1.90;99.90;;;;;;5011601;28;20092;-79
2021/03/17 07:34:36;;;;;;;40.33;19.13;;;1.90;99.90;;;;;;5007886;28;20495;-79
2021/03/17 07:37:06;;;;;;;39.17;17.33;;;2.00;99.90;;;;;;5009208;28;20391;-79
2021/03/17 07:39:39;;;;;;;32.08;15.55;;;2.10;99.90;;;;;;5008172;28;20447;-78
2021/03/17 07:42:08;;;;;;;38.45;19.42;;;2.30;99.90;;;;;;5009338;28;20014;-78
2021/03/17 07:44:39;;;;;;;48.50;19.83;;;2.20;99.90;;;;;;5011554;28;20030;-78
2021/03/17 07:47:10;;;;;;;66.95;31.30;;;2.40;99.90;;;;;;5010089;28;20053;-78
2021/03/17 07:49:38;;;;;;;38.13;17.63;;;2.50;99.90;;;;;;5009907;28;20084;-78
2021/03/17 07:52:08;;;;;;;31.27;15.82;;;2.60;99.90;;;;;;5009936;28;20057;-78
2021/03/17 07:54:36;;;;;;;36.40;16.95;;;2.20;99.90;;;;;;5010107;28;20518;-78
2021/03/17 07:57:04;;;;;;;37.03;17.67;;;2.20;99.90;;;;;;5011278;28;20041;-79
2021/03/17 07:59:30;;;;;;;36.60;16.70;;;2.20;99.90;;;;;;5011136;28;20025;-78
2021/03/17 08:01:57;;;;;;;31.73;14.20;;;2.10;99.90;;;;;;5009854;28;20416;-78
2021/03/17 08:04:28;;;;;;;41.58;18.52;;;2.10;99.90;;;;;;5010256;28;20029;-78
2021/03/17 08:06:59;;;;;;;38.70;18.98;;;2.20;99.90;;;;;;5010231;28;20526;-77
2021/03/17 08:09:26;;;;;;;37.55;16.15;;;2.40;99.90;;;;;;5014545;28;20100;-79
2021/03/17 08:11:53;;;;;;;35.35;17.35;;;2.40;99.90;;;;;;5014988;28;20026;-77
2021/03/17 08:14:20;;;;;;;33.70;16.13;;;2.50;99.90;;;;;;5015082;28;20034;-78
2021/03/17 08:16:47;;;;;;;29.17;13.48;;;2.60;99.90;;;;;;5013808;28;20029;-78
2021/03/17 08:19:28;;;;;;;25.48;12.88;;;2.50;99.90;;;;;;5014862;28;20085;-78
2021/03/17 08:22:06;;;;;;;29.00;15.35;;;2.40;98.60;;;;;;5013366;28;20429;-77
2021/03/17 08:24:33;;;;;;;30.98;13.95;;;2.30;98.00;;;;;;5013521;28;20033;-78
2021/03/17 08:27:01;;;;;;;27.58;14.80;;;2.30;96.90;;;;;;5013937;28;20026;-77
2021/03/17 08:29:36;;;;;;;27.10;15.38;;;2.30;99.20;;;;;;5013073;28;20468;-78
2021/03/17 08:32:02;;;;;;;38.88;16.92;;;2.30;99.90;;;;;;5012278;28;20483;-78
2021/03/17 08:34:29;;;;;;;34.13;15.02;;;2.40;98.30;;;;;;5014617;28;20036;-78
2021/03/17 08:36:57;;;;;;;41.65;17.75;;;2.40;98.70;;;;;;5013519;28;20037;-78
2021/03/17 08:39:32;;;;;;;30.55;13.95;;;2.40;99.20;;;;;;5012658;28;20032;-79
2021/03/17 08:42:01;;;;;;;22.70;12.75;;;2.40;91.90;;;;;;5020323;28;20120;-79
2021/03/17 08:44:29;;;;;;;22.63;11.43;;;2.40;90.00;;;;;;5012164;28;20041;-79
2021/03/17 08:46:57;;;;;;;27.95;13.15;;;2.40;91.20;;;;;;5014377;28;20480;-80
2021/03/17 08:49:28;;;;;;;26.25;13.82;;;2.60;91.80;;;;;;5011468;28;20486;-79
2021/03/17 08:51:53;;;;;;;31.15;13.07;;;2.50;90.70;;;;;;5011921;28;20087;-78
2021/03/17 08:54:31;;;;;;;22.92;12.30;;;2.60;92.10;;;;;;5011494;28;20025;-77
2021/03/17 08:56:57;;;;;;;30.13;13.35;;;2.40;93.00;;;;;;5010735;28;20088;-78
2021/03/17 08:59:37;;;;;;;24.75;13.15;;;2.40;94.50;;;;;;5012177;28;20451;-77
2021/03/17 09:02:03;;;;;;;23.15;13.45;;;2.50;92.70;;;;;;5012974;28;20392;-78
2021/03/17 09:04:49;;;;;;;29.23;13.88;;;2.50;91.00;;;;;;5013262;28;20038;-78
2021/03/17 09:07:15;;;;;;;27.65;13.18;;;2.60;91.90;;;;;;5012932;28;20117;-78
2021/03/17 09:09:48;;;;;;;31.67;15.55;;;2.50;90.60;;;;;;5012510;28;20121;-78
2021/03/17 09:12:16;;;;;;;26.92;12.35;;;2.70;91.00;;;;;;5012742;28;20037;-78
2021/03/17 09:14:42;;;;;;;28.13;14.02;;;2.70;88.10;;;;;;5013947;28;20028;-77
2021/03/17 09:17:22;;;;;;;28.38;12.98;;;2.70;89.20;;;;;;5012765;28;20029;-78
2021/03/17 09:19:57;;;;;;;32.95;13.27;;;2.70;88.30;;;;;;5044196;28;20030;-78
2021/03/17 09:22:31;;;;;;;27.00;13.20;;;2.80;90.10;;;;;;5014694;28;20030;-79
2021/03/17 09:24:57;;;;;;;25.83;14.75;;;2.90;87.70;;;;;;5014986;28;20115;-77
2021/03/17 09:27:23;;;;;;;29.73;15.60;;;2.90;88.00;;;;;;5013110;28;20480;-78
2021/03/17 09:29:49;;;;;;;26.30;11.35;;;2.80;87.80;;;;;;5012650;28;20034;-77
2021/03/17 09:32:16;;;;;;;23.13;11.88;;;2.80;87.30;;;;;;5013485;28;20026;-78
2021/03/17 09:34:42;;;;;;;20.70;11.43;;;2.80;83.80;;;;;;5014632;28;20113;-78
2021/03/17 09:37:11;;;;;;;24.17;11.35;;;2.70;84.10;;;;;;5012973;28;20555;-78
2021/03/17 09:39:45;;;;;;;27.13;12.00;;;2.70;82.40;;;;;;5009695;28;20054;-78
2021/03/17 09:42:18;;;;;;;29.00;12.73;;;2.90;82.70;;;;;;5014272;28;20044;-77
2021/03/17 09:44:44;;;;;;;28.90;14.15;;;2.90;82.90;;;;;;5011591;28;20084;-78
2021/03/17 09:47:10;;;;;;;28.60;12.18;;;2.80;85.50;;;;;;5013070;28;20018;-78
2021/03/17 09:49:36;;;;;;;25.98;11.40;;;2.70;85.60;;;;;;5013364;28;20164;-79
2021/03/17 09:52:04;;;;;;;29.40;12.50;;;2.80;86.70;;;;;;5012652;28;20014;-79
2021/03/17 09:54:31;;;;;;;32.40;13.98;;;2.90;84.00;;;;;;5012805;28;20030;-78
2021/03/17 09:57:03;;;;;;;31.90;14.20;;;3.10;82.80;;;;;;5014319;28;20025;-78
2021/03/17 09:59:35;;;;;;;26.73;13.73;;;3.60;83.60;;;;;;5012660;28;20025;-77
2021/03/17 10:02:16;;;;;;;19.25;10.70;;;3.70;77.50;;;;;;5012780;28;20018;-77
2021/03/17 10:04:45;;;;;;;23.23;10.98;;;4.00;72.30;;;;;;5013325;28;20037;-77
2021/03/17 10:07:17;;;;;;;21.98;10.48;;;3.80;70.50;;;;;;5012945;28;20113;-77
2021/03/17 10:09:43;;;;;;;24.42;11.65;;;3.70;71.70;;;;;;5013455;28;20042;-77
2021/03/17 10:12:15;;;;;;;20.52;10.65;;;3.60;71.60;;;;;;5012292;28;20018;-77
2021/03/17 10:14:46;;;;;;;23.08;9.57;;;3.60;68.30;;;;;;5012305;28;20026;-77
2021/03/17 10:17:14;;;;;;;18.40;9.93;;;3.60;67.30;;;;;;5009546;28;20022;-78
2021/03/17 10:19:40;;;;;;;25.17;12.02;;;3.70;68.20;;;;;;5010047;28;20034;-74
2021/03/17 10:22:08;;;;;;;15.50;9.40;;;3.90;69.00;;;;;;5013408;28;20099;-77
2021/03/17 10:24:46;;;;;;;19.92;10.40;;;4.10;69.30;;;;;;5012565;28;20373;-77
2021/03/17 10:27:15;;;;;;;26.35;10.15;;;4.10;69.80;;;;;;5013479;28;20033;-77
2021/03/17 10:29:43;;;;;;;16.27;8.27;;;3.90;68.80;;;;;;5010939;28;20499;-74
2021/03/17 10:32:12;;;;;;;18.50;9.82;;;3.40;68.40;;;;;;5013220;28;20387;-74
2021/03/17 10:34:38;;;;;;;26.10;11.25;;;3.60;68.50;;;;;;5011931;28;20032;-74
2021/03/17 10:37:04;;;;;;;19.90;8.93;;;3.60;69.40;;;;;;5011117;28;20025;-75
2021/03/17 10:39:35;;;;;;;19.85;9.73;;;3.70;68.70;;;;;;5011467;28;20167;-75
2021/03/17 10:42:03;;;;;;;20.42;10.23;;;3.80;68.80;;;;;;5010509;28;20022;-75
2021/03/17 10:44:31;;;;;;;18.55;9.25;;;3.60;66.90;;;;;;5013044;28;20037;-73
2021/03/17 10:47:04;;;;;;;19.83;8.85;;;3.80;65.80;;;;;;5010952;28;20030;-73
2021/03/17 10:49:32;;;;;;;15.77;8.27;;;4.00;65.20;;;;;;5013423;28;20034;-73
2021/03/17 10:51:58;;;;;;;15.50;7.95;;;4.10;65.80;;;;;;5010854;28;20053;-76
2021/03/17 10:54:28;;;;;;;17.13;8.95;;;3.90;66.40;;;;;;5013430;28;20082;-76
2021/03/17 10:56:54;;;;;;;20.58;9.65;;;3.70;67.50;;;;;;5011952;28;20487;-76
2021/03/17 10:59:24;;;;;;;30.98;15.70;;;3.50;70.10;;;;;;5012721;28;20110;-76
2021/03/17 11:01:50;;;;;;;17.23;6.97;;;3.50;70.50;;;;;;5011518;28;20032;-75
2021/03/17 11:04:17;;;;;;;25.88;14.20;;;3.30;69.10;;;;;;5011908;28;20121;-76
2021/03/17 11:06:57;;;;;;;26.30;13.95;;;3.40;70.00;;;;;;5011859;28;20030;-77
2021/03/17 11:09:23;;;;;;;19.35;11.18;;;3.30;70.20;;;;;;5011444;28;20029;-77
2021/03/17 11:11:52;;;;;;;23.30;13.00;;;3.30;71.50;;;;;;5011302;28;20017;-77
2021/03/17 11:14:39;;;;;;;25.70;14.07;;;3.20;71.90;;;;;;5010973;28;20091;-76
2021/03/17 11:17:08;;;;;;;23.92;11.90;;;3.10;72.10;;;;;;5010893;28;20025;-77
2021/03/17 11:19:35;;;;;;;19.98;10.50;;;3.00;73.60;;;;;;5012424;28;20084;-76
2021/03/17 11:22:00;;;;;;;42.03;18.75;;;3.00;75.20;;;;;;5011640;28;20100;-76
2021/03/17 11:24:26;;;;;;;25.88;13.07;;;2.90;78.20;;;;;;5009529;28;20109;-77
2021/03/17 11:26:52;;;;;;;29.80;15.10;;;3.10;79.30;;;;;;5010196;28;20029;-76
2021/03/17 11:29:23;;;;;;;24.80;11.73;;;3.00;79.40;;;;;;5011122;28;20376;-76
2021/03/17 11:31:54;;;;;;;20.77;10.88;;;2.90;80.80;;;;;;5011239;28;20026;-76
2021/03/17 11:34:21;;;;;;;26.08;14.57;;;2.90;81.40;;;;;;5008057;28;20018;-76
2021/03/17 11:36:50;;;;;;;24.92;13.05;;;3.10;81.10;;;;;;5011591;28;20022;-76
2021/03/17 11:39:17;;;;;;;26.83;13.75;;;3.10;79.90;;;;;;5008417;28;20498;-76
2021/03/17 11:41:45;;;;;;;18.98;10.02;;;2.90;78.60;;;;;;5011178;28;20026;-76
2021/03/17 11:44:16;;;;;;;24.45;12.77;;;3.20;78.00;;;;;;5012325;28;20494;-76
2021/03/17 11:46:42;;;;;;;26.25;13.48;;;3.10;77.00;;;;;;5011155;28;20033;-77
2021/03/17 11:49:08;;;;;;;29.27;16.88;;;3.20;76.10;;;;;;5010878;28;20041;-76
2021/03/17 11:51:34;;;;;;;36.90;17.38;;;3.10;75.70;;;;;;5012498;28;20030;-76
2021/03/17 11:53:59;;;;;;;24.73;10.90;;;2.90;76.50;;;;;;5011189;28;20030;-76
2021/03/17 11:56:25;;;;;;;18.20;8.93;;;3.00;77.30;;;;;;5012647;28;20026;-77
2021/03/17 11:58:51;;;;;;;18.60;10.57;;;2.40;78.50;;;;;;5011140;28;20419;-76
2021/03/17 12:01:17;;;;;;;15.60;8.85;;;2.30;80.20;;;;;;5012299;28;20022;-76
2021/03/17 12:03:43;;;;;;;27.25;12.80;;;2.10;81.70;;;;;;5010825;28;20037;-76
2021/03/17 12:06:09;;;;;;;19.20;10.27;;;1.90;83.20;;;;;;5010674;28;20025;-76
2021/03/17 12:08:36;;;;;;;17.27;9.13;;;2.00;82.70;;;;;;5010842;28;20044;-76
2021/03/17 12:11:02;;;;;;;16.58;9.95;;;2.00;78.80;;;;;;5010979;28;20026;-76
2021/03/17 12:13:28;;;;;;;23.13;11.02;;;2.10;78.30;;;;;;5010753;28;20018;-76
2021/03/17 12:15:54;;;;;;;17.65;10.52;;;2.10;76.70;;;;;;5010840;28;20037;-76
2021/03/17 12:18:20;;;;;;;29.33;15.80;;;2.10;75.20;;;;;;5012612;28;20022;-77
2021/03/17 12:20:46;;;;;;;15.23;9.18;;;2.20;75.40;;;;;;5010865;28;20064;-76
2021/03/17 12:23:13;;;;;;;19.73;9.45;;;2.30;74.10;;;;;;5012129;28;20420;-77
2021/03/17 12:25:38;;;;;;;21.27;12.55;;;2.20;74.90;;;;;;5010288;28;20450;-75
2021/03/17 12:28:04;;;;;;;20.70;11.27;;;2.20;76.00;;;;;;5012001;28;20025;-76
2021/03/17 12:30:30;;;;;;;17.05;9.25;;;2.30;75.60;;;;;;5010819;28;20100;-75
2021/03/17 12:32:56;;;;;;;20.58;10.68;;;2.40;74.80;;;;;;5010774;28;20439;-76
2021/03/17 12:35:24;;;;;;;24.63;11.07;;;2.30;72.70;;;;;;5011966;28;20032;-74
2021/03/17 12:37:51;;;;;;;26.83;14.25;;;2.40;73.40;;;;;;5010658;28;20386;-76
2021/03/17 12:40:20;;;;;;;23.33;11.27;;;2.40;72.50;;;;;;5010649;28;20113;-76
2021/03/17 12:42:46;;;;;;;19.45;9.18;;;2.30;72.30;;;;;;5012166;28;20551;-76
2021/03/17 12:45:14;;;;;;;24.63;12.80;;;2.30;72.80;;;;;;5010708;28;20022;-76
2021/03/17 12:47:41;;;;;;;21.45;11.18;;;2.30;72.70;;;;;;5010771;28;20022;-77